Time;durP1;ratioP1;P1;durP2;ratioP2;P2;SDS_P1;SDS_P2;PMS_P1;PMS_P2;Temp;Humidity;BMP_temperature;BMP_pressure;BME280_temperature;BME280_humidity;BME280_pressure;Samples;Min_cycle;Max_cycle;Signal;HPM_P1;HPM_P2
2022/11/27 00:00:51;;;;;;;73.37;43.40;;;6.00;99.90;;;;;;5070788;28;20296;-52
2022/11/27 00:03:19;;;;;;;248.77;86.37;;;6.10;99.90;;;;;;5069774;28;20296;-52
2022/11/27 00:05:55;;;;;;;619.20;135.23;;;6.00;99.90;;;;;;5070515;28;20633;-52
2022/11/27 00:08:24;;;;;;;261.67;126.57;;;6.00;99.90;;;;;;5070459;28;20311;-51
2022/11/27 00:10:52;;;;;;;535.07;108.73;;;6.00;99.90;;;;;;5070313;28;20208;-52
2022/11/27 00:13:21;;;;;;;591.80;146.90;;;6.00;99.90;;;;;;5069710;28;20820;-52
2022/11/27 00:15:50;;;;;;;326.27;97.43;;;6.00;99.90;;;;;;5070346;28;20225;-52
2022/11/27 00:18:19;;;;;;;397.17;103.07;;;5.90;99.90;;;;;;5070004;28;20197;-52
2022/11/27 00:20:47;;;;;;;226.90;85.20;;;5.90;99.90;;;;;;5069870;28;20904;-52
2022/11/27 00:23:15;;;;;;;453.47;93.13;;;6.00;99.90;;;;;;5068446;28;20235;-51
2022/11/27 00:25:50;;;;;;;436.30;112.70;;;5.90;99.90;;;;;;5069969;28;20305;-51
2022/11/27 00:28:18;;;;;;;195.70;72.90;;;6.00;99.90;;;;;;5069165;28;20704;-51
2022/11/27 00:30:46;;;;;;;86.73;52.20;;;5.90;99.90;;;;;;5070074;28;20212;-52
2022/11/27 00:33:15;;;;;;;151.03;62.67;;;5.90;99.90;;;;;;5068864;28;20624;-52
2022/11/27 00:35:44;;;;;;;378.50;98.37;;;6.00;99.90;;;;;;5069122;28;20231;-51
2022/11/27 00:38:12;;;;;;;56.23;44.90;;;6.00;99.90;;;;;;5069608;28;20285;-51
2022/11/27 00:40:40;;;;;;;225.83;79.23;;;6.00;99.90;;;;;;5068698;28;20294;-52
2022/11/27 00:43:08;;;;;;;1404.67;221.77;;;6.00;99.90;;;;;;5068971;28;20242;-51
2022/11/27 00:45:36;;;;;;;494.17;124.60;;;6.00;99.90;;;;;;5069440;28;20230;-52
2022/11/27 00:48:04;;;;;;;510.80;168.17;;;5.90;99.90;;;;;;5068657;28;20706;-51
2022/11/27 00:50:34;;;;;;;144.97;62.87;;;5.90;99.90;;;;;;5069321;28;20247;-52
2022/11/27 00:53:02;;;;;;;402.07;95.37;;;5.90;99.90;;;;;;5066767;28;20294;-51
2022/11/27 00:55:30;;;;;;;664.60;148.93;;;5.90;99.90;;;;;;5069027;28;20227;-51
2022/11/27 00:57:58;;;;;;;469.90;154.67;;;5.90;99.90;;;;;;5068777;28;20201;-51
2022/11/27 01:00:26;;;;;;;265.50;97.13;;;5.90;99.90;;;;;;5068356;28;20244;-52
2022/11/27 01:02:54;;;;;;;213.03;70.37;;;5.90;99.90;;;;;;5067856;28;20211;-51
2022/11/27 01:05:22;;;;;;;126.63;54.23;;;5.90;99.90;;;;;;5069311;28;20225;-52
2022/11/27 01:07:52;;;;;;;840.60;231.70;;;5.90;99.90;;;;;;5068562;28;20715;-52
2022/11/27 01:10:20;;;;;;;105.47;46.20;;;6.00;99.90;;;;;;5073116;28;20299;-51
2022/11/27 01:12:49;;;;;;;72.83;38.33;;;5.90;99.90;;;;;;5070527;28;20214;-52
2022/11/27 01:15:17;;;;;;;56.40;41.97;;;6.00;99.90;;;;;;5072181;28;20291;-52
2022/11/27 01:17:45;;;;;;;133.20;59.17;;;6.00;99.90;;;;;;5070706;28;20238;-51
2022/11/27 01:20:13;;;;;;;157.90;48.17;;;6.00;99.90;;;;;;5075002;28;20212;-52
2022/11/27 01:22:41;;;;;;;108.67;53.53;;;6.10;99.90;;;;;;5068908;28;20303;-51
2022/11/27 01:25:11;;;;;;;170.13;68.77;;;6.00;99.90;;;;;;5074190;28;20241;-51
2022/11/27 01:27:39;;;;;;;86.83;49.83;;;6.00;99.90;;;;;;5069054;28;20300;-51
2022/11/27 01:30:08;;;;;;;163.03;65.37;;;6.00;99.90;;;;;;5072503;28;20204;-51
2022/11/27 01:32:36;;;;;;;236.90;82.87;;;6.00;99.90;;;;;;5071595;28;20314;-51
2022/11/27 01:35:05;;;;;;;258.83;105.47;;;6.00;99.90;;;;;;5069110;28;20306;-52
2022/11/27 01:37:33;;;;;;;211.73;87.73;;;6.00;99.90;;;;;;5071782;28;20206;-51
2022/11/27 01:40:01;;;;;;;209.43;79.77;;;6.00;99.90;;;;;;5070457;28;20208;-51
2022/11/27 01:42:31;;;;;;;109.63;43.80;;;6.00;99.90;;;;;;5070100;28;20242;-51
2022/11/27 01:44:59;;;;;;;183.47;71.77;;;6.00;99.90;;;;;;5069666;28;20931;-51
2022/11/27 01:47:36;;;;;;;93.50;48.33;;;6.00;99.90;;;;;;5074153;28;20297;-51
2022/11/27 01:50:13;;;;;;;255.37;89.57;;;6.10;99.90;;;;;;5069075;28;20733;-52
2022/11/27 01:52:46;;;;;;;244.83;100.07;;;6.10;99.90;;;;;;5067010;28;20654;-51
2022/11/27 01:55:20;;;;;;;94.13;48.90;;;6.10;99.90;;;;;;5067710;28;20205;-51
2022/11/27 01:57:53;;;;;;;172.30;74.30;;;6.10;99.90;;;;;;5068801;28;20207;-52
2022/11/27 02:00:22;;;;;;;119.63;51.13;;;6.10;99.90;;;;;;5065098;28;20314;-52
2022/11/27 02:02:50;;;;;;;403.57;87.90;;;6.10;99.90;;;;;;5063588;28;20665;-52
2022/11/27 02:05:21;;;;;;;369.60;135.33;;;6.10;99.90;;;;;;5068119;28;20215;-52
2022/11/27 02:07:50;;;;;;;890.60;137.00;;;6.00;99.90;;;;;;5067571;28;20326;-52
2022/11/27 02:10:19;;;;;;;167.90;48.57;;;6.00;99.90;;;;;;5068663;28;20733;-52
2022/11/27 02:12:56;;;;;;;151.80;64.23;;;6.00;99.90;;;;;;5071238;28;20304;-51
2022/11/27 02:15:32;;;;;;;141.53;44.87;;;6.00;99.90;;;;;;5074985;28;20232;-57
2022/11/27 02:18:09;;;;;;;104.80;60.23;;;6.00;99.90;;;;;;5078422;28;20304;-52
2022/11/27 02:20:47;;;;;;;249.43;86.70;;;6.00;99.90;;;;;;5071197;28;20306;-52
2022/11/27 02:23:35;;;;;;;281.47;86.50;;;6.00;99.90;;;;;;5071579;28;20297;-52
2022/11/27 02:26:31;;;;;;;124.70;50.17;;;6.10;99.90;;;;;;5077660;28;20281;-52
2022/11/27 02:29:03;;;;;;;1259.07;244.93;;;6.00;99.90;;;;;;5081113;28;20312;-51
2022/11/27 02:31:40;;;;;;;1490.17;263.30;;;6.00;99.90;;;;;;5087609;28;20681;-52
2022/11/27 02:34:25;;;;;;;417.33;125.53;;;5.90;99.90;;;;;;5076792;28;20204;-50
2022/11/27 02:37:00;;;;;;;175.30;66.63;;;5.90;99.90;;;;;;5073267;28;20308;-52
2022/11/27 02:39:36;;;;;;;605.47;174.40;;;5.90;99.90;;;;;;5068824;28;20288;-52
2022/11/27 02:42:08;;;;;;;1790.77;327.00;;;5.90;99.90;;;;;;5066614;28;20208;-52
2022/11/27 02:44:43;;;;;;;277.73;87.13;;;5.90;99.90;;;;;;5067886;28;20217;-52
2022/11/27 02:47:13;;;;;;;114.30;49.07;;;5.90;99.90;;;;;;5069760;28;20323;-51
2022/11/27 02:49:44;;;;;;;170.07;63.47;;;5.90;99.90;;;;;;5066041;28;20321;-52
2022/11/27 02:52:15;;;;;;;81.83;39.30;;;5.90;99.90;;;;;;5072377;28;20292;-51
2022/11/27 02:54:44;;;;;;;260.87;85.43;;;6.00;99.90;;;;;;5072388;28;20214;-51
2022/11/27 02:57:13;;;;;;;68.93;48.87;;;6.00;99.90;;;;;;5072398;28;20231;-52
2022/11/27 02:59:44;;;;;;;149.07;46.77;;;6.00;99.90;;;;;;5072361;28;20822;-50
2022/11/27 03:02:18;;;;;;;123.10;70.37;;;6.00;99.90;;;;;;5071274;28;20208;-52
2022/11/27 03:04:50;;;;;;;68.73;45.60;;;6.00;99.90;;;;;;5072156;28;20215;-52
2022/11/27 03:07:25;;;;;;;153.93;69.93;;;6.00;99.90;;;;;;5071270;28;20239;-52
2022/11/27 03:09:57;;;;;;;259.17;77.57;;;6.10;99.90;;;;;;5071985;28;20224;-51
2022/11/27 03:12:25;;;;;;;1144.50;258.00;;;6.10;99.90;;;;;;5071789;28;20217;-51
2022/11/27 03:14:54;;;;;;;140.63;58.40;;;6.10;99.90;;;;;;5071568;28;20670;-52
2022/11/27 03:17:44;;;;;;;77.40;52.40;;;6.00;99.90;;;;;;5072141;28;20227;-52
2022/11/27 03:20:17;;;;;;;191.53;74.90;;;6.00;99.90;;;;;;5071753;28;20210;-51
2022/11/27 03:22:45;;;;;;;148.20;66.87;;;6.00;99.90;;;;;;5065689;28;20857;-52
2022/11/27 03:25:15;;;;;;;147.73;65.10;;;5.90;99.90;;;;;;5066927;28;20217;-52
2022/11/27 03:27:47;;;;;;;1093.07;166.73;;;5.90;99.90;;;;;;5072001;28;20290;-52
2022/11/27 03:30:17;;;;;;;213.37;72.33;;;6.00;99.90;;;;;;5071300;28;20230;-51
2022/11/27 03:32:46;;;;;;;137.57;75.50;;;5.90;99.90;;;;;;5071097;28;20732;-51
2022/11/27 03:35:17;;;;;;;1870.73;403.97;;;6.00;99.90;;;;;;5071223;28;20292;-52
2022/11/27 03:37:45;;;;;;;159.40;75.17;;;6.00;99.90;;;;;;5071680;28;20888;-51
2022/11/27 03:40:14;;;;;;;468.80;109.53;;;5.90;99.90;;;;;;5063438;28;20297;-52
2022/11/27 03:42:59;;;;;;;792.57;210.87;;;5.90;99.90;;;;;;5071032;28;20292;-52
2022/11/27 03:45:35;;;;;;;1306.13;260.60;;;5.90;99.90;;;;;;5071386;28;20233;-52
2022/11/27 03:48:16;;;;;;;298.10;65.17;;;5.80;99.90;;;;;;5070983;28;20298;-52
2022/11/27 03:50:54;;;;;;;119.33;62.43;;;5.80;99.90;;;;;;5058125;28;20336;-51
2022/11/27 03:53:32;;;;;;;318.90;101.43;;;5.90;99.90;;;;;;5067997;28;20478;-52
2022/11/27 03:56:06;;;;;;;130.20;51.07;;;5.90;99.90;;;;;;5069960;28;20322;-51
2022/11/27 03:58:42;;;;;;;1635.27;259.50;;;5.90;99.90;;;;;;5070674;28;20207;-52
2022/11/27 04:01:14;;;;;;;699.17;159.27;;;5.90;99.90;;;;;;5071254;28;20240;-51
2022/11/27 04:03:42;;;;;;;221.57;72.50;;;5.80;99.90;;;;;;5070432;28;20667;-51
2022/11/27 04:06:10;;;;;;;153.20;74.57;;;5.80;99.90;;;;;;5058915;28;20290;-52
2022/11/27 04:08:39;;;;;;;441.37;108.90;;;5.80;99.90;;;;;;5070924;28;20246;-51
2022/11/27 04:11:07;;;;;;;509.60;113.40;;;5.80;99.90;;;;;;5070941;28;20266;-51
2022/11/27 04:13:36;;;;;;;288.50;87.97;;;5.80;99.90;;;;;;5070924;28;20242;-52
2022/11/27 04:16:04;;;;;;;1307.37;305.80;;;5.80;99.90;;;;;;5071133;28;20260;-51
2022/11/27 04:18:34;;;;;;;329.73;101.10;;;5.80;99.90;;;;;;5071318;28;20635;-50
2022/11/27 04:21:02;;;;;;;734.27;200.93;;;5.80;99.90;;;;;;5070628;28;20303;-52
2022/11/27 04:23:30;;;;;;;117.57;56.80;;;5.80;99.90;;;;;;5070111;28;20237;-51
2022/11/27 04:25:58;;;;;;;327.00;136.10;;;5.80;99.90;;;;;;5070583;28;20235;-53
2022/11/27 04:28:26;;;;;;;961.97;202.37;;;5.70;99.90;;;;;;5070507;28;20237;-51
2022/11/27 04:30:55;;;;;;;1706.30;296.17;;;5.70;99.90;;;;;;5070461;28;20318;-51
2022/11/27 04:33:23;;;;;;;1415.13;271.67;;;5.60;99.90;;;;;;5069991;28;20219;-51
2022/11/27 04:35:53;;;;;;;1048.53;233.00;;;5.50;99.90;;;;;;5068990;28;20320;-51
2022/11/27 04:38:22;;;;;;;613.87;167.10;;;5.50;99.90;;;;;;5069400;28;20215;-51
2022/11/27 04:40:52;;;;;;;1999.90;508.67;;;5.50;99.90;;;;;;5068103;28;20197;-52
2022/11/27 04:43:20;;;;;;;786.93;183.93;;;5.50;99.90;;;;;;5069584;28;20246;-51
2022/11/27 04:45:48;;;;;;;816.47;240.30;;;5.40;99.90;;;;;;5069913;28;20251;-51
2022/11/27 04:48:16;;;;;;;846.67;157.87;;;5.40;99.90;;;;;;5070299;28;20291;-51
2022/11/27 04:50:44;;;;;;;34.40;28.57;;;5.50;99.90;;;;;;5063280;28;20225;-51
2022/11/27 04:53:13;;;;;;;275.60;93.27;;;5.50;99.90;;;;;;5069608;28;20294;-51
2022/11/27 04:55:41;;;;;;;147.60;66.63;;;5.50;99.90;;;;;;5069350;28;20335;-51
2022/11/27 04:58:09;;;;;;;366.10;78.30;;;5.60;99.90;;;;;;5069921;28;20221;-51
2022/11/27 05:00:37;;;;;;;247.40;54.90;;;5.60;99.90;;;;;;5070226;28;20296;-51
2022/11/27 05:03:06;;;;;;;88.70;49.07;;;5.60;99.90;;;;;;5069536;28;20307;-51
2022/11/27 05:05:35;;;;;;;95.57;44.47;;;5.60;99.90;;;;;;5069531;28;20647;-51
2022/11/27 05:08:03;;;;;;;1218.53;263.83;;;5.50;99.90;;;;;;5068771;28;20728;-52
2022/11/27 05:10:32;;;;;;;1204.07;232.57;;;5.50;99.90;;;;;;5068838;28;20315;-52
2022/11/27 05:13:00;;;;;;;44.77;36.03;;;5.50;99.90;;;;;;5067879;28;20310;-52
2022/11/27 05:15:28;;;;;;;297.57;68.53;;;5.50;99.90;;;;;;5068681;28;20262;-51
2022/11/27 05:17:56;;;;;;;170.33;60.90;;;5.50;99.90;;;;;;5069084;28;20208;-52
2022/11/27 05:20:24;;;;;;;685.17;194.80;;;5.40;99.90;;;;;;5068466;28;20300;-52
2022/11/27 05:22:52;;;;;;;235.77;69.27;;;5.50;99.90;;;;;;5071087;28;20302;-52
2022/11/27 05:25:20;;;;;;;166.13;61.90;;;5.50;99.90;;;;;;5066601;28;20210;-52
2022/11/27 05:27:50;;;;;;;627.50;143.80;;;5.50;99.90;;;;;;5069325;28;20207;-52
2022/11/27 05:30:18;;;;;;;154.43;59.10;;;5.50;99.90;;;;;;5068855;28;20240;-51
2022/11/27 05:32:46;;;;;;;64.13;50.37;;;5.50;99.90;;;;;;5068849;28;20207;-51
2022/11/27 05:35:14;;;;;;;390.43;91.20;;;5.50;99.90;;;;;;5068120;28;20213;-51
2022/11/27 05:37:42;;;;;;;220.07;79.70;;;5.50;99.90;;;;;;5069364;28;20322;-50
2022/11/27 05:40:10;;;;;;;350.53;99.87;;;5.50;99.90;;;;;;5068455;28;20237;-52
2022/11/27 05:42:38;;;;;;;219.77;70.47;;;5.60;99.90;;;;;;5068107;28;20221;-52
2022/11/27 05:45:09;;;;;;;549.73;122.23;;;5.60;99.90;;;;;;5068539;28;20668;-51
2022/11/27 05:47:37;;;;;;;854.93;190.50;;;5.60;99.90;;;;;;5069067;28;20805;-51
2022/11/27 05:50:06;;;;;;;203.53;75.33;;;5.50;99.90;;;;;;5068781;28;20265;-51
2022/11/27 05:52:34;;;;;;;701.67;217.20;;;5.50;99.90;;;;;;5068784;28;20238;-51
2022/11/27 05:55:03;;;;;;;659.93;130.57;;;5.60;99.90;;;;;;5068511;28;20242;-51
2022/11/27 05:57:31;;;;;;;290.33;96.30;;;5.50;99.90;;;;;;5068721;28;20211;-52
2022/11/27 05:59:59;;;;;;;231.53;81.90;;;5.50;99.90;;;;;;5069147;28;20303;-51
2022/11/27 06:02:29;;;;;;;512.43;149.67;;;5.50;99.90;;;;;;5068321;28;20303;-52
2022/11/27 06:04:58;;;;;;;1042.67;203.30;;;5.50;99.90;;;;;;5068524;28;20211;-51
2022/11/27 06:07:26;;;;;;;1999.90;501.57;;;5.40;99.90;;;;;;5068509;28;20795;-51
2022/11/27 06:09:54;;;;;;;301.33;72.83;;;5.50;99.90;;;;;;5069019;28;20218;-52
2022/11/27 06:12:22;;;;;;;655.90;133.80;;;5.40;99.90;;;;;;5068453;28;20305;-51
2022/11/27 06:14:50;;;;;;;351.07;110.60;;;5.50;99.90;;;;;;5068953;28;20590;-52
2022/11/27 06:17:18;;;;;;;191.57;88.03;;;5.50;99.90;;;;;;5069137;28;20327;-52
2022/11/27 06:19:48;;;;;;;656.93;151.77;;;5.50;99.90;;;;;;5068839;28;20293;-52
2022/11/27 06:22:16;;;;;;;134.20;70.70;;;5.50;99.90;;;;;;5065612;28;20287;-51
2022/11/27 06:24:44;;;;;;;80.90;42.20;;;5.60;99.90;;;;;;5066667;28;20241;-51
2022/11/27 06:27:12;;;;;;;114.10;51.27;;;5.60;99.90;;;;;;5072609;28;20227;-51
2022/11/27 06:29:40;;;;;;;617.10;168.10;;;5.60;99.90;;;;;;5071709;28;20216;-52
2022/11/27 06:32:08;;;;;;;66.47;40.03;;;5.60;99.90;;;;;;5072397;28;20315;-51
2022/11/27 06:34:36;;;;;;;435.40;107.20;;;5.60;99.90;;;;;;5072564;28;20602;-51
2022/11/27 06:37:06;;;;;;;340.43;89.60;;;5.60;99.90;;;;;;5072699;28;20256;-52
2022/11/27 06:39:40;;;;;;;106.50;49.67;;;5.60;99.90;;;;;;5060073;28;20428;-52
2022/11/27 06:42:08;;;;;;;348.20;122.23;;;5.60;99.90;;;;;;5072033;28;20227;-52
2022/11/27 06:44:36;;;;;;;162.97;60.47;;;5.60;99.90;;;;;;5071177;28;20235;-52
2022/11/27 06:47:04;;;;;;;134.80;48.83;;;5.60;99.90;;;;;;5071122;28;20233;-52
2022/11/27 06:49:32;;;;;;;1153.20;214.13;;;5.60;99.90;;;;;;5071331;28;20208;-52
2022/11/27 06:52:00;;;;;;;441.27;97.67;;;5.60;99.90;;;;;;5071711;28;20322;-52
2022/11/27 06:54:30;;;;;;;1359.37;252.53;;;5.50;99.90;;;;;;5073084;28;20297;-52
2022/11/27 06:56:58;;;;;;;750.43;160.00;;;5.60;99.90;;;;;;5073279;28;20770;-53
2022/11/27 06:59:26;;;;;;;574.20;137.67;;;5.60;99.90;;;;;;5073022;28;20297;-52
2022/11/27 07:01:54;;;;;;;102.07;40.97;;;5.60;99.90;;;;;;5072246;28;20292;-53
2022/11/27 07:04:22;;;;;;;368.33;106.90;;;5.70;99.90;;;;;;5071802;28;20236;-51
2022/11/27 07:06:50;;;;;;;253.73;77.13;;;5.80;99.90;;;;;;5071972;28;20328;-52
2022/11/27 07:09:18;;;;;;;202.87;82.30;;;5.80;99.90;;;;;;5071159;28;20296;-52
2022/11/27 07:11:48;;;;;;;750.27;211.03;;;5.80;99.90;;;;;;5071422;28;20264;-52
2022/11/27 07:14:16;;;;;;;106.37;58.20;;;5.80;99.90;;;;;;5071988;28;20295;-53
2022/11/27 07:16:44;;;;;;;72.67;50.33;;;5.80;99.90;;;;;;5068638;28;20307;-52
2022/11/27 07:19:13;;;;;;;415.57;116.30;;;5.80;99.90;;;;;;5071853;28;20207;-52
2022/11/27 07:21:41;;;;;;;80.33;52.77;;;5.80;99.90;;;;;;5071678;28;20209;-52
2022/11/27 07:24:09;;;;;;;454.17;141.57;;;5.80;99.90;;;;;;5071155;28;20211;-53
2022/11/27 07:26:37;;;;;;;178.83;52.80;;;5.80;99.90;;;;;;5071017;28;20595;-52
2022/11/27 07:29:06;;;;;;;119.60;59.10;;;5.80;99.90;;;;;;5069851;28;20284;-52
2022/11/27 07:31:35;;;;;;;521.73;103.23;;;5.90;99.90;;;;;;5071644;28;20268;-51
2022/11/27 07:34:03;;;;;;;225.33;73.50;;;5.90;99.90;;;;;;5069439;28;20206;-52
2022/11/27 07:36:38;;;;;;;172.43;82.53;;;5.90;99.90;;;;;;5070517;28;20230;-52
2022/11/27 07:39:06;;;;;;;399.50;104.47;;;5.90;99.90;;;;;;5071490;28;20297;-51
2022/11/27 07:41:34;;;;;;;266.37;98.80;;;5.90;99.90;;;;;;5065940;28;20242;-51
2022/11/27 07:44:03;;;;;;;284.80;80.20;;;5.90;99.90;;;;;;5066145;28;20626;-52
2022/11/27 07:46:32;;;;;;;151.77;52.87;;;5.90;99.90;;;;;;5066876;28;20591;-51
2022/11/27 07:49:01;;;;;;;423.57;145.53;;;5.90;99.90;;;;;;5071202;28;20681;-51
2022/11/27 07:51:29;;;;;;;241.33;98.37;;;6.00;99.90;;;;;;5070925;28;20291;-51
2022/11/27 07:53:57;;;;;;;548.37;191.33;;;6.00;99.90;;;;;;5077683;28;20210;-52
2022/11/27 07:56:26;;;;;;;720.27;112.97;;;5.90;99.90;;;;;;5071675;28;20266;-52
2022/11/27 07:58:54;;;;;;;1156.50;231.83;;;6.00;99.90;;;;;;5060250;28;20624;-52
2022/11/27 08:01:22;;;;;;;646.93;135.33;;;5.90;99.90;;;;;;5069004;28;20238;-52
2022/11/27 08:03:51;;;;;;;128.53;53.23;;;6.00;99.90;;;;;;5063631;28;20251;-52
2022/11/27 08:06:21;;;;;;;140.83;63.03;;;6.00;99.90;;;;;;5070412;28;20323;-52
2022/11/27 08:08:50;;;;;;;160.77;58.33;;;6.00;99.90;;;;;;5071179;28;20300;-52
2022/11/27 08:11:20;;;;;;;810.37;214.33;;;6.00;99.90;;;;;;5071739;28;20248;-51
2022/11/27 08:13:49;;;;;;;68.60;43.73;;;6.10;99.90;;;;;;5071927;28;20204;-52
2022/11/27 08:16:17;;;;;;;1834.43;323.63;;;6.10;99.90;;;;;;5070069;28;20265;-52
2022/11/27 08:18:45;;;;;;;295.60;86.07;;;6.30;99.90;;;;;;5071334;28;20207;-52
2022/11/27 08:21:15;;;;;;;1737.57;408.03;;;6.20;99.90;;;;;;5071860;28;20233;-53
2022/11/27 08:23:43;;;;;;;153.00;56.93;;;6.20;99.90;;;;;;5071484;28;20257;-52
2022/11/27 08:26:12;;;;;;;389.07;140.17;;;6.20;99.90;;;;;;5072321;28;20236;-53
2022/11/27 08:28:41;;;;;;;250.83;81.03;;;6.20;99.90;;;;;;5071901;28;20764;-52
2022/11/27 08:31:11;;;;;;;141.17;73.20;;;6.20;99.90;;;;;;5070251;28;20688;-52
2022/11/27 08:33:40;;;;;;;150.70;50.83;;;6.20;99.90;;;;;;5066951;28;20633;-52
2022/11/27 08:36:09;;;;;;;1082.17;214.60;;;6.20;99.90;;;;;;5081910;28;20671;-53
2022/11/27 08:38:46;;;;;;;1158.33;218.80;;;6.30;99.90;;;;;;5087662;28;20199;-53
2022/11/27 08:41:14;;;;;;;269.33;105.30;;;6.40;99.90;;;;;;5077443;28;20680;-53
2022/11/27 08:43:42;;;;;;;1083.60;210.93;;;6.40;99.90;;;;;;5064723;28;20213;-53
2022/11/27 08:46:11;;;;;;;262.43;116.43;;;6.50;99.90;;;;;;5069326;28;20220;-52
2022/11/27 08:48:40;;;;;;;1088.00;239.97;;;6.60;99.90;;;;;;5062727;28;20201;-52
2022/11/27 08:51:10;;;;;;;607.90;178.70;;;6.60;99.90;;;;;;5070280;28;20285;-52
2022/11/27 08:53:38;;;;;;;401.43;138.57;;;6.80;99.90;;;;;;5068682;28;20231;-53
2022/11/27 08:56:11;;;;;;;1041.53;288.10;;;6.80;99.90;;;;;;5058962;28;20254;-51
2022/11/27 08:58:40;;;;;;;1999.90;461.50;;;6.80;99.90;;;;;;5068772;28;20251;-52
2022/11/27 09:01:10;;;;;;;1142.87;266.93;;;6.60;99.90;;;;;;5067580;28;20306;-52
2022/11/27 09:03:38;;;;;;;1231.07;277.67;;;6.60;99.90;;;;;;5067556;28;20194;-52
2022/11/27 09:06:08;;;;;;;1161.80;224.60;;;6.60;99.90;;;;;;5067877;28;20246;-51
2022/11/27 09:08:38;;;;;;;582.17;124.40;;;6.60;99.90;;;;;;5065878;28;20236;-52
2022/11/27 09:11:08;;;;;;;543.77;160.93;;;6.60;99.90;;;;;;5065243;28;20211;-52
2022/11/27 09:13:36;;;;;;;617.20;221.23;;;6.70;99.90;;;;;;5069419;28;20312;-52
2022/11/27 09:16:05;;;;;;;420.90;147.33;;;6.80;99.90;;;;;;5069477;28;20231;-52
2022/11/27 09:18:34;;;;;;;377.90;113.47;;;6.80;99.90;;;;;;5069569;28;20226;-52
2022/11/27 09:21:05;;;;;;;281.30;81.83;;;6.90;99.90;;;;;;5069670;28;20208;-52
2022/11/27 09:23:33;;;;;;;1125.37;250.53;;;6.90;99.90;;;;;;5066030;28;20242;-52
2022/11/27 09:26:02;;;;;;;879.37;229.27;;;7.00;99.90;;;;;;5069301;28;20267;-53
2022/11/27 09:28:33;;;;;;;563.47;213.40;;;6.90;99.90;;;;;;5069192;28;20891;-52
2022/11/27 09:31:02;;;;;;;459.13;136.57;;;6.90;99.90;;;;;;5055575;28;20207;-52
2022/11/27 09:33:32;;;;;;;1199.33;282.63;;;6.90;99.90;;;;;;5068983;28;20311;-51
2022/11/27 09:36:04;;;;;;;534.63;132.70;;;6.90;99.90;;;;;;5068136;28;20259;-53
2022/11/27 09:38:32;;;;;;;575.43;157.93;;;6.90;99.90;;;;;;5062785;28;20634;-51
2022/11/27 09:41:07;;;;;;;458.90;157.20;;;7.00;99.90;;;;;;5067492;28;20200;-52
2022/11/27 09:43:42;;;;;;;223.40;77.67;;;7.00;99.90;;;;;;5068425;28;20200;-52
2022/11/27 09:46:18;;;;;;;814.47;231.63;;;7.10;99.90;;;;;;5068870;28;20228;-51
2022/11/27 09:48:50;;;;;;;1703.63;459.77;;;7.10;99.90;;;;;;5068655;28;20204;-52
2022/11/27 09:51:25;;;;;;;689.17;218.93;;;7.10;99.90;;;;;;5068353;28;20201;-52
2022/11/27 09:54:00;;;;;;;996.90;233.73;;;7.10;99.90;;;;;;5067751;28;20229;-52
2022/11/27 09:56:30;;;;;;;1488.30;380.47;;;7.10;99.90;;;;;;5068209;28;20318;-52
2022/11/27 09:59:00;;;;;;;608.07;164.20;;;7.10;99.90;;;;;;5068529;28;20304;-52
2022/11/27 10:01:31;;;;;;;651.10;194.77;;;7.00;99.90;;;;;;5067877;28;20200;-52
2022/11/27 10:04:14;;;;;;;1328.73;324.43;;;7.00;99.90;;;;;;5067691;28;20197;-52
2022/11/27 10:06:59;;;;;;;355.27;126.57;;;7.00;99.90;;;;;;5068287;28;20245;-52
2022/11/27 10:09:39;;;;;;;911.33;295.67;;;7.00;99.90;;;;;;5064800;28;20328;-52
2022/11/27 10:12:18;;;;;;;170.37;61.60;;;7.10;99.90;;;;;;5065259;28;20296;-52
2022/11/27 10:14:59;;;;;;;1373.07;303.87;;;7.20;99.90;;;;;;5057653;28;20227;-52
2022/11/27 10:17:33;;;;;;;342.07;114.00;;;7.20;99.90;;;;;;5067028;28;20250;-53
2022/11/27 10:20:11;;;;;;;265.33;86.67;;;7.20;99.90;;;;;;5066338;28;20224;-52
2022/11/27 10:22:47;;;;;;;758.07;193.90;;;7.20;99.90;;;;;;5065901;28;20289;-53
2022/11/27 10:25:19;;;;;;;310.73;105.70;;;7.20;99.90;;;;;;5066573;28;20288;-51
2022/11/27 10:28:01;;;;;;;720.17;162.77;;;7.20;99.90;;;;;;5067548;28;20240;-53
2022/11/27 10:30:37;;;;;;;908.83;349.20;;;7.20;99.90;;;;;;5068230;28;20200;-50
2022/11/27 10:33:16;;;;;;;1130.93;255.13;;;7.40;99.90;;;;;;5067446;28;20596;-52
2022/11/27 10:35:48;;;;;;;503.23;180.63;;;7.40;99.90;;;;;;5067382;28;20233;-52
2022/11/27 10:38:19;;;;;;;340.43;100.47;;;7.40;99.90;;;;;;5067557;28;20584;-51
2022/11/27 10:40:54;;;;;;;363.90;113.13;;;7.40;99.90;;;;;;5063661;28;20204;-52
2022/11/27 10:43:24;;;;;;;1359.30;294.27;;;7.40;99.90;;;;;;5057629;28;20294;-53
2022/11/27 10:45:56;;;;;;;365.63;93.87;;;7.60;99.90;;;;;;5067836;28;20740;-53
2022/11/27 10:48:26;;;;;;;377.07;103.97;;;7.60;99.90;;;;;;5067450;28;20270;-52
2022/11/27 10:50:54;;;;;;;1211.17;317.90;;;7.60;99.90;;;;;;5067422;28;20288;-53
2022/11/27 10:53:28;;;;;;;770.73;168.27;;;7.70;99.90;;;;;;5066906;28;20316;-52
2022/11/27 10:56:19;;;;;;;1244.63;298.77;;;7.80;99.90;;;;;;5067651;28;20217;-52
2022/11/27 10:58:55;;;;;;;972.73;273.53;;;7.80;99.90;;;;;;5066490;28;20247;-52
2022/11/27 11:01:26;;;;;;;565.37;188.13;;;7.90;99.90;;;;;;5067706;28;20315;-52
2022/11/27 11:04:05;;;;;;;1498.53;423.47;;;7.90;99.90;;;;;;5067158;28;20307;-52
2022/11/27 11:06:54;;;;;;;710.60;194.53;;;8.00;99.90;;;;;;5066516;28;20241;-52
2022/11/27 11:09:24;;;;;;;1713.27;405.07;;;8.10;99.90;;;;;;5069886;28;20292;-53
2022/11/27 11:11:52;;;;;;;283.40;95.17;;;8.00;99.90;;;;;;5069180;28;20288;-52
2022/11/27 11:14:25;;;;;;;1151.23;261.47;;;8.00;99.90;;;;;;5070642;28;20252;-53
2022/11/27 11:16:55;;;;;;;1253.97;317.20;;;8.00;99.90;;;;;;5071378;28;20290;-52
2022/11/27 11:19:31;;;;;;;1070.27;308.23;;;8.00;99.90;;;;;;5071156;28;21084;-52
2022/11/27 11:22:04;;;;;;;415.57;132.63;;;7.90;99.90;;;;;;5069364;28;20288;-53
2022/11/27 11:24:41;;;;;;;773.13;195.13;;;8.00;99.90;;;;;;5068683;28;20200;-51
2022/11/27 11:27:15;;;;;;;1999.90;563.93;;;7.90;99.90;;;;;;5066860;28;20225;-52
2022/11/27 11:29:49;;;;;;;836.67;210.33;;;7.80;99.90;;;;;;5071322;28;20329;-53
2022/11/27 11:32:29;;;;;;;1048.07;394.53;;;7.90;99.90;;;;;;5070368;28;20213;-53
2022/11/27 11:35:00;;;;;;;644.43;198.53;;;7.90;99.90;;;;;;5069538;28;20709;-52
2022/11/27 11:37:31;;;;;;;360.73;112.57;;;7.90;99.90;;;;;;5069117;28;20235;-52
2022/11/27 11:40:01;;;;;;;1194.13;408.47;;;8.00;99.90;;;;;;5069016;28;20205;-53
2022/11/27 11:42:31;;;;;;;1302.83;354.83;;;8.00;99.90;;;;;;5085576;28;20208;-53
2022/11/27 11:45:04;;;;;;;1021.00;401.57;;;8.00;99.90;;;;;;5081668;28;20295;-53
2022/11/27 11:47:35;;;;;;;558.77;183.90;;;8.00;99.90;;;;;;5087995;28;20244;-53
2022/11/27 11:50:03;;;;;;;316.83;103.37;;;8.10;99.90;;;;;;5089503;28;20204;-52
2022/11/27 11:52:43;;;;;;;1000.43;306.33;;;8.00;99.90;;;;;;5078874;28;20287;-53
2022/11/27 11:55:18;;;;;;;372.67;114.63;;;8.10;99.90;;;;;;5091118;28;20318;-52
2022/11/27 11:58:09;;;;;;;906.13;341.10;;;8.00;99.90;;;;;;5086958;28;20203;-53
2022/11/27 12:00:45;;;;;;;1209.93;398.37;;;8.10;99.90;;;;;;5093068;28;20691;-51
2022/11/27 12:03:49;;;;;;;587.63;245.77;;;8.10;99.90;;;;;;5092363;28;20688;-52
2022/11/27 12:06:32;;;;;;;482.10;148.13;;;8.10;99.90;;;;;;5091238;28;20242;-53
2022/11/27 12:09:20;;;;;;;345.27;151.70;;;8.20;99.90;;;;;;5075464;28;20201;-53
2022/11/27 12:11:55;;;;;;;1256.57;263.03;;;8.20;99.90;;;;;;5077278;28;20279;-53
2022/11/27 12:14:36;;;;;;;177.17;67.23;;;8.20;99.90;;;;;;5079621;28;20224;-53
2022/11/27 12:17:23;;;;;;;1990.00;447.13;;;8.20;99.90;;;;;;5066383;28;20269;-53
2022/11/27 12:20:03;;;;;;;150.27;68.00;;;8.30;99.90;;;;;;5070178;28;20270;-53
2022/11/27 12:22:55;;;;;;;244.73;123.97;;;8.30;99.90;;;;;;5069301;28;20240;-52
2022/11/27 12:25:32;;;;;;;514.13;200.33;;;8.40;99.90;;;;;;5070227;28;20283;-52
2022/11/27 12:28:20;;;;;;;930.97;267.60;;;8.30;99.90;;;;;;5070668;28;20320;-52
2022/11/27 12:30:54;;;;;;;691.87;223.13;;;8.30;99.90;;;;;;5072368;28;20251;-53
2022/11/27 12:33:42;;;;;;;729.87;203.50;;;8.30;99.90;;;;;;5064115;28;20283;-53
2022/11/27 12:36:21;;;;;;;751.17;307.27;;;8.30;99.90;;;;;;5069507;28;20335;-52
2022/11/27 12:39:10;;;;;;;263.37;114.57;;;8.30;99.90;;;;;;5069458;28;20771;-52
2022/11/27 12:41:50;;;;;;;496.13;159.10;;;8.30;99.90;;;;;;5066506;28;20220;-52